sensor_id;sensor_type;location;lat;lon;timestamp;pressure;altitude;pressure_sealevel;temperature;humidity
50732;BME280;36700;50.488;2.544;2023-08-08T00:00:47;101373.16;;;18.56;59.86
50732;BME280;36700;50.488;2.544;2023-08-08T00:03:13;101373.72;;;18.59;60.16
50732;BME280;36700;50.488;2.544;2023-08-08T00:05:39;101375.03;;;18.56;59.60
50732;BME280;36700;50.488;2.544;2023-08-08T00:08:06;101375.25;;;18.54;60.31
50732;BME280;36700;50.488;2.544;2023-08-08T00:10:32;101376.69;;;18.57;60.23
50732;BME280;36700;50.488;2.544;2023-08-08T00:12:58;101363.31;;;18.55;60.09
50732;BME280;36700;50.488;2.544;2023-08-08T00:15:24;101371.22;;;18.57;60.25
50732;BME280;36700;50.488;2.544;2023-08-08T00:17:50;101362.25;;;18.56;59.86
50732;BME280;36700;50.488;2.544;2023-08-08T00:20:16;101362.72;;;18.53;60.01
50732;BME280;36700;50.488;2.544;2023-08-08T00:22:41;101367.94;;;18.55;59.94
50732;BME280;36700;50.488;2.544;2023-08-08T00:25:08;101360.59;;;18.55;60.16
50732;BME280;36700;50.488;2.544;2023-08-08T00:27:34;101363.56;;;18.54;60.33
50732;BME280;36700;50.488;2.544;2023-08-08T00:30:00;101362.47;;;18.55;60.11
50732;BME280;36700;50.488;2.544;2023-08-08T00:32:26;101365.22;;;18.55;59.79
50732;BME280;36700;50.488;2.544;2023-08-08T00:34:52;101368.78;;;18.55;59.82
50732;BME280;36700;50.488;2.544;2023-08-08T00:37:18;101362.72;;;18.53;60.47
50732;BME280;36700;50.488;2.544;2023-08-08T00:39:44;101366.84;;;18.56;59.78
50732;BME280;36700;50.488;2.544;2023-08-08T00:42:14;101360.59;;;18.55;59.90
50732;BME280;36700;50.488;2.544;2023-08-08T00:44:40;101355.16;;;18.55;59.75
50732;BME280;36700;50.488;2.544;2023-08-08T00:47:08;101351.59;;;18.55;59.93
50732;BME280;36700;50.488;2.544;2023-08-08T00:49:34;101351.59;;;18.55;60.12
50732;BME280;36700;50.488;2.544;2023-08-08T00:52:01;101349.94;;;18.54;59.93
50732;BME280;36700;50.488;2.544;2023-08-08T00:54:28;101336.56;;;18.52;60.08
50732;BME280;36700;50.488;2.544;2023-08-08T00:56:54;101345.31;;;18.54;59.85
50732;BME280;36700;50.488;2.544;2023-08-08T00:59:20;101343.66;;;18.53;60.20
50732;BME280;36700;50.488;2.544;2023-08-08T01:01:47;101347.78;;;18.56;60.19
50732;BME280;36700;50.488;2.544;2023-08-08T01:04:13;101349.72;;;18.55;60.12
50732;BME280;36700;50.488;2.544;2023-08-08T01:06:45;101345.56;;;18.53;60.25
50732;BME280;36700;50.488;2.544;2023-08-08T01:09:48;101340.69;;;18.55;59.82
50732;BME280;36700;50.488;2.544;2023-08-08T01:12:17;101336.31;;;18.54;60.31
50732;BME280;36700;50.488;2.544;2023-08-08T01:14:43;101336.56;;;18.52;60.15
50732;BME280;36700;50.488;2.544;2023-08-08T01:17:10;101325.88;;;18.51;60.01
50732;BME280;36700;50.488;2.544;2023-08-08T01:19:37;101322.34;;;18.50;60.05
50732;BME280;36700;50.488;2.544;2023-08-08T01:22:09;101319.63;;;18.50;60.19
50732;BME280;36700;50.488;2.544;2023-08-08T01:24:40;101320.22;;;18.52;60.19
50732;BME280;36700;50.488;2.544;2023-08-08T01:27:06;101330.25;;;18.52;60.44
50732;BME280;36700;50.488;2.544;2023-08-08T01:29:32;101331.94;;;18.53;59.94
50732;BME280;36700;50.488;2.544;2023-08-08T01:31:58;101328.38;;;18.52;60.05
50732;BME280;36700;50.488;2.544;2023-08-08T01:34:24;101324.59;;;18.53;59.79
50732;BME280;36700;50.488;2.544;2023-08-08T01:37:07;101317.72;;;18.51;59.95
50732;BME280;36700;50.488;2.544;2023-08-08T01:39:35;101322.94;;;18.52;59.78
50732;BME280;36700;50.488;2.544;2023-08-08T01:42:02;101319.13;;;18.53;59.76
50732;BME280;36700;50.488;2.544;2023-08-08T01:44:29;101325.44;;;18.54;59.94
50732;BME280;36700;50.488;2.544;2023-08-08T01:46:55;101310.38;;;18.51;60.22
50732;BME280;36700;50.488;2.544;2023-08-08T01:49:21;101309.31;;;18.52;60.22
50732;BME280;36700;50.488;2.544;2023-08-08T01:51:46;101306.59;;;18.52;59.71
50732;BME280;36700;50.488;2.544;2023-08-08T01:54:14;101299.50;;;18.51;60.20
50732;BME280;36700;50.488;2.544;2023-08-08T01:56:40;101301.38;;;18.51;59.84
50732;BME280;36700;50.488;2.544;2023-08-08T01:59:05;101304.94;;;18.51;60.08
50732;BME280;36700;50.488;2.544;2023-08-08T02:01:31;101310.38;;;18.51;60.21
50732;BME280;36700;50.488;2.544;2023-08-08T02:03:57;101309.56;;;18.51;60.25
50732;BME280;36700;50.488;2.544;2023-08-08T02:06:23;101302.44;;;18.50;60.22
50732;BME280;36700;50.488;2.544;2023-08-08T02:08:49;101297.25;;;18.48;60.17
50732;BME280;36700;50.488;2.544;2023-08-08T02:11:15;101288.50;;;18.46;59.89
50732;BME280;36700;50.488;2.544;2023-08-08T02:13:41;101284.47;;;18.49;60.24
50732;BME280;36700;50.488;2.544;2023-08-08T02:16:07;101280.09;;;18.48;59.92
50732;BME280;36700;50.488;2.544;2023-08-08T02:18:33;101291.78;;;18.48;60.05
50732;BME280;36700;50.488;2.544;2023-08-08T02:20:59;101275.72;;;18.47;59.83
50732;BME280;36700;50.488;2.544;2023-08-08T02:23:24;101287.66;;;18.46;60.39
50732;BME280;36700;50.488;2.544;2023-08-08T02:25:52;101292.28;;;18.45;60.02
50732;BME280;36700;50.488;2.544;2023-08-08T02:28:17;101287.66;;;18.46;60.29
50732;BME280;36700;50.488;2.544;2023-08-08T02:30:44;101284.13;;;18.45;60.23
50732;BME280;36700;50.488;2.544;2023-08-08T02:33:10;101287.41;;;18.47;59.94
50732;BME280;36700;50.488;2.544;2023-08-08T02:35:36;101286.34;;;18.48;60.09
50732;BME280;36700;50.488;2.544;2023-08-08T02:38:03;101282.47;;;18.44;60.02
50732;BME280;36700;50.488;2.544;2023-08-08T02:40:29;101272.16;;;18.46;59.86
50732;BME280;36700;50.488;2.544;2023-08-08T02:42:55;101282.22;;;18.46;60.11
50732;BME280;36700;50.488;2.544;2023-08-08T02:45:21;101270.50;;;18.45;59.99
50732;BME280;36700;50.488;2.544;2023-08-08T02:47:47;101272.16;;;18.46;60.24
50732;BME280;36700;50.488;2.544;2023-08-08T02:50:13;101257.13;;;18.43;60.24
50732;BME280;36700;50.488;2.544;2023-08-08T02:52:39;101260.34;;;18.40;60.31
50732;BME280;36700;50.488;2.544;2023-08-08T02:55:05;101268.00;;;18.43;59.93
50732;BME280;36700;50.488;2.544;2023-08-08T02:57:31;101269.66;;;18.44;59.99
50732;BME280;36700;50.488;2.544;2023-08-08T02:59:57;101266.38;;;18.42;60.31
50732;BME280;36700;50.488;2.544;2023-08-08T03:02:23;101271.81;;;18.42;60.52
50732;BME280;36700;50.488;2.544;2023-08-08T03:04:50;101270.97;;;18.42;60.26
50732;BME280;36700;50.488;2.544;2023-08-08T03:07:15;101269.31;;;18.41;60.24
50732;BME280;36700;50.488;2.544;2023-08-08T03:09:41;101284.59;;;18.42;60.73
50732;BME280;36700;50.488;2.544;2023-08-08T03:12:08;101270.16;;;18.41;60.02
50732;BME280;36700;50.488;2.544;2023-08-08T03:14:34;101271.81;;;18.42;60.25
50732;BME280;36700;50.488;2.544;2023-08-08T03:17:00;101255.13;;;18.39;60.12
50732;BME280;36700;50.488;2.544;2023-08-08T03:19:26;101254.06;;;18.40;60.62
50732;BME280;36700;50.488;2.544;2023-08-08T03:21:52;101256.53;;;18.41;60.32
50732;BME280;36700;50.488;2.544;2023-08-08T03:24:18;101250.75;;;18.38;60.44
50732;BME280;36700;50.488;2.544;2023-08-08T03:26:44;101250.75;;;18.38;60.04
50732;BME280;36700;50.488;2.544;2023-08-08T03:29:10;101242.31;;;18.39;60.27
50732;BME280;36700;50.488;2.544;2023-08-08T03:31:36;101246.13;;;18.38;60.53
50732;BME280;36700;50.488;2.544;2023-08-08T03:34:02;101238.78;;;18.39;60.50
50732;BME280;36700;50.488;2.544;2023-08-08T03:36:28;101242.31;;;18.39;60.28
50732;BME280;36700;50.488;2.544;2023-08-08T03:38:54;101246.13;;;18.38;60.57
50732;BME280;36700;50.488;2.544;2023-08-08T03:41:20;101240.69;;;18.38;60.42
50732;BME280;36700;50.488;2.544;2023-08-08T03:43:46;101236.31;;;18.37;60.24
50732;BME280;36700;50.488;2.544;2023-08-08T03:46:12;101239.88;;;18.38;60.33
50732;BME280;36700;50.488;2.544;2023-08-08T03:48:38;101248.03;;;18.38;60.16
50732;BME280;36700;50.488;2.544;2023-08-08T03:51:04;101248.84;;;18.38;60.17
50732;BME280;36700;50.488;2.544;2023-08-08T03:53:31;101241.41;;;18.34;60.64
50732;BME280;36700;50.488;2.544;2023-08-08T03:55:57;101235.72;;;18.35;60.21
50732;BME280;36700;50.488;2.544;2023-08-08T03:58:23;101239.25;;;18.36;60.66
50732;BME280;36700;50.488;2.544;2023-08-08T04:00:49;101242.25;;;18.34;60.72
50732;BME280;36700;50.488;2.544;2023-08-08T04:03:16;101243.06;;;18.35;60.60
50732;BME280;36700;50.488;2.544;2023-08-08T04:05:46;101243.06;;;18.35;60.24
50732;BME280;36700;50.488;2.544;2023-08-08T04:08:13;101241.88;;;18.30;60.54
50732;BME280;36700;50.488;2.544;2023-08-08T04:10:39;101243.06;;;18.35;60.71
50732;BME280;36700;50.488;2.544;2023-08-08T04:13:05;101241.41;;;18.34;60.69
50732;BME280;36700;50.488;2.544;2023-08-08T04:15:31;101240.34;;;18.35;60.75
50732;BME280;36700;50.488;2.544;2023-08-08T04:17:57;101243.28;;;18.33;60.60
50732;BME280;36700;50.488;2.544;2023-08-08T04:20:23;101248.72;;;18.33;60.32
50732;BME280;36700;50.488;2.544;2023-08-08T04:22:49;101241.63;;;18.32;60.81
50732;BME280;36700;50.488;2.544;2023-08-08T04:25:15;101238.09;;;18.32;60.75
50732;BME280;36700;50.488;2.544;2023-08-08T04:27:41;101248.72;;;18.33;60.39
50732;BME280;36700;50.488;2.544;2023-08-08T04:30:07;101247.09;;;18.32;60.54
50732;BME280;36700;50.488;2.544;2023-08-08T04:32:33;101242.47;;;18.33;60.49
50732;BME280;36700;50.488;2.544;2023-08-08T04:34:59;101239.75;;;18.33;60.61
50732;BME280;36700;50.488;2.544;2023-08-08T04:37:25;101249.00;;;18.32;60.81
50732;BME280;36700;50.488;2.544;2023-08-08T04:39:51;101250.88;;;18.31;60.87
50732;BME280;36700;50.488;2.544;2023-08-08T04:42:17;101247.09;;;18.32;60.33
50732;BME280;36700;50.488;2.544;2023-08-08T04:44:43;101246.28;;;18.32;60.62
50732;BME280;36700;50.488;2.544;2023-08-08T04:47:09;101252.53;;;18.32;60.49
50732;BME280;36700;50.488;2.544;2023-08-08T04:49:35;101247.31;;;18.30;60.87
50732;BME280;36700;50.488;2.544;2023-08-08T04:52:01;101248.72;;;18.33;60.55
50732;BME280;36700;50.488;2.544;2023-08-08T04:54:27;101257.41;;;18.30;60.75
50732;BME280;36700;50.488;2.544;2023-08-08T04:56:54;101261.19;;;18.29;60.55
50732;BME280;36700;50.488;2.544;2023-08-08T04:59:19;101263.91;;;18.29;60.74
50732;BME280;36700;50.488;2.544;2023-08-08T05:01:45;101268.28;;;18.30;60.48
50732;BME280;36700;50.488;2.544;2023-08-08T05:04:11;101267.44;;;18.29;60.95
50732;BME280;36700;50.488;2.544;2023-08-08T05:06:37;101267.78;;;18.33;60.71
50732;BME280;36700;50.488;2.544;2023-08-08T05:09:03;101255.47;;;18.30;60.79
50732;BME280;36700;50.488;2.544;2023-08-08T05:11:29;101250.66;;;18.33;60.71
50732;BME280;36700;50.488;2.544;2023-08-08T05:13:55;101241.88;;;18.30;60.47
50732;BME280;36700;50.488;2.544;2023-08-08T05:16:21;101244.59;;;18.30;60.61
50732;BME280;36700;50.488;2.544;2023-08-08T05:18:48;101243.56;;;18.32;60.75
50732;BME280;36700;50.488;2.544;2023-08-08T05:21:14;101255.47;;;18.30;61.07
50732;BME280;36700;50.488;2.544;2023-08-08T05:23:40;101257.41;;;18.30;60.83
50732;BME280;36700;50.488;2.544;2023-08-08T05:26:06;101264.16;;;18.27;60.63
50732;BME280;36700;50.488;2.544;2023-08-08T05:28:32;101261.66;;;18.26;60.69
50732;BME280;36700;50.488;2.544;2023-08-08T05:30:58;101266.03;;;18.27;60.57
50732;BME280;36700;50.488;2.544;2023-08-08T05:33:24;101275.88;;;18.28;60.61
50732;BME280;36700;50.488;2.544;2023-08-08T05:35:50;101273.97;;;18.28;60.70
50732;BME280;36700;50.488;2.544;2023-08-08T05:38:16;101272.88;;;18.29;60.61
50732;BME280;36700;50.488;2.544;2023-08-08T05:40:42;101264.16;;;18.27;61.07
50732;BME280;36700;50.488;2.544;2023-08-08T05:43:08;101267.44;;;18.29;60.72
50732;BME280;36700;50.488;2.544;2023-08-08T05:45:34;101261.19;;;18.29;60.67
50732;BME280;36700;50.488;2.544;2023-08-08T05:48:00;101266.38;;;18.30;61.00
50732;BME280;36700;50.488;2.544;2023-08-08T05:50:27;101268.28;;;18.30;60.94
50732;BME280;36700;50.488;2.544;2023-08-08T05:52:53;101263.91;;;18.29;60.95
50732;BME280;36700;50.488;2.544;2023-08-08T05:55:19;101264.72;;;18.29;60.99
50732;BME280;36700;50.488;2.544;2023-08-08T05:57:45;101269.09;;;18.30;60.46
50732;BME280;36700;50.488;2.544;2023-08-08T06:00:11;101275.97;;;18.33;61.05
50732;BME280;36700;50.488;2.544;2023-08-08T06:02:38;101273.72;;;18.30;60.93
50732;BME280;36700;50.488;2.544;2023-08-08T06:05:04;101278.34;;;18.29;61.08
50732;BME280;36700;50.488;2.544;2023-08-08T06:07:31;101270.16;;;18.29;61.25
50732;BME280;36700;50.488;2.544;2023-08-08T06:09:57;101266.63;;;18.29;60.96
50732;BME280;36700;50.488;2.544;2023-08-08T06:12:22;101253.84;;;18.29;60.87
50732;BME280;36700;50.488;2.544;2023-08-08T06:14:48;101263.06;;;18.28;61.26
50732;BME280;36700;50.488;2.544;2023-08-08T06:17:14;101264.97;;;18.28;61.08
50732;BME280;36700;50.488;2.544;2023-08-08T06:19:40;101266.38;;;18.30;61.17
50732;BME280;36700;50.488;2.544;2023-08-08T06:22:06;101262.00;;;18.29;61.10
50732;BME280;36700;50.488;2.544;2023-08-08T06:24:32;101257.41;;;18.30;61.04
50732;BME280;36700;50.488;2.544;2023-08-08T06:26:58;101261.53;;;18.33;61.24
50732;BME280;36700;50.488;2.544;2023-08-08T06:29:24;101260.69;;;18.32;61.11
50732;BME280;36700;50.488;2.544;2023-08-08T06:31:50;101257.75;;;18.34;60.90
50732;BME280;36700;50.488;2.544;2023-08-08T06:34:16;101259.63;;;18.33;61.09
50732;BME280;36700;50.488;2.544;2023-08-08T06:36:42;101256.91;;;18.33;61.05
50732;BME280;36700;50.488;2.544;2023-08-08T06:39:09;101253.13;;;18.34;60.79
50732;BME280;36700;50.488;2.544;2023-08-08T06:41:37;101247.44;;;18.36;61.09
50732;BME280;36700;50.488;2.544;2023-08-08T06:44:04;101249.34;;;18.35;60.89
50732;BME280;36700;50.488;2.544;2023-08-08T06:46:30;101250.41;;;18.34;60.67
50732;BME280;36700;50.488;2.544;2023-08-08T06:48:56;101250.41;;;18.34;60.78
50732;BME280;36700;50.488;2.544;2023-08-08T06:51:24;101262.94;;;18.35;60.85
50732;BME280;36700;50.488;2.544;2023-08-08T06:53:51;101260.81;;;18.37;60.84
50732;BME280;36700;50.488;2.544;2023-08-08T06:56:18;101261.38;;;18.39;60.71
50732;BME280;36700;50.488;2.544;2023-08-08T06:58:44;101257.13;;;18.43;61.07
50732;BME280;36700;50.488;2.544;2023-08-08T07:01:09;101244.19;;;18.51;61.01
50732;BME280;36700;50.488;2.544;2023-08-08T07:03:35;101251.72;;;18.61;60.40
50732;BME280;36700;50.488;2.544;2023-08-08T07:06:04;101251.72;;;18.73;60.33
50732;BME280;36700;50.488;2.544;2023-08-08T07:08:31;101250.00;;;18.83;59.75
50732;BME280;36700;50.488;2.544;2023-08-08T07:10:58;101256.97;;;18.91;59.58
50732;BME280;36700;50.488;2.544;2023-08-08T07:13:26;101265.44;;;19.07;59.14
50732;BME280;36700;50.488;2.544;2023-08-08T07:15:52;101260.56;;;19.09;59.14
50732;BME280;36700;50.488;2.544;2023-08-08T07:18:19;101267.09;;;19.08;58.98
50732;BME280;36700;50.488;2.544;2023-08-08T07:20:45;101254.25;;;19.20;58.45
50732;BME280;36700;50.488;2.544;2023-08-08T07:23:11;101260.19;;;19.34;58.31
50732;BME280;36700;50.488;2.544;2023-08-08T07:25:37;101258.53;;;19.68;57.74
50732;BME280;36700;50.488;2.544;2023-08-08T07:28:03;101250.47;;;20.12;56.22
50732;BME280;36700;50.488;2.544;2023-08-08T07:30:29;101257.94;;;20.00;56.18
50732;BME280;36700;50.488;2.544;2023-08-08T07:32:55;101251.72;;;19.87;56.46
50732;BME280;36700;50.488;2.544;2023-08-08T07:35:20;101244.25;;;21.49;53.08
50732;BME280;36700;50.488;2.544;2023-08-08T07:37:46;101230.41;;;22.94;48.36
50732;BME280;36700;50.488;2.544;2023-08-08T07:40:20;101243.06;;;20.80;54.35
50732;BME280;36700;50.488;2.544;2023-08-08T07:42:47;101246.97;;;21.82;51.44
50732;BME280;36700;50.488;2.544;2023-08-08T07:45:14;101246.25;;;22.66;49.64
50732;BME280;36700;50.488;2.544;2023-08-08T07:47:40;101251.19;;;23.99;46.46
50732;BME280;36700;50.488;2.544;2023-08-08T07:50:07;101246.31;;;23.03;47.99
50732;BME280;36700;50.488;2.544;2023-08-08T07:52:36;101248.28;;;21.74;51.21
50732;BME280;36700;50.488;2.544;2023-08-08T07:55:03;101253.25;;;20.40;54.93
50732;BME280;36700;50.488;2.544;2023-08-08T07:57:30;101253.88;;;20.02;55.76
50732;BME280;36700;50.488;2.544;2023-08-08T07:59:57;101262.81;;;19.98;56.68
50732;BME280;36700;50.488;2.544;2023-08-08T08:02:23;101251.84;;;19.75;56.84
50732;BME280;36700;50.488;2.544;2023-08-08T08:04:49;101249.44;;;19.45;57.96
50732;BME280;36700;50.488;2.544;2023-08-08T08:07:15;101241.69;;;19.36;58.39
50732;BME280;36700;50.488;2.544;2023-08-08T08:09:40;101245.41;;;19.30;58.21
50732;BME280;36700;50.488;2.544;2023-08-08T08:12:08;101242.25;;;19.21;58.50
50732;BME280;36700;50.488;2.544;2023-08-08T08:14:34;101242.31;;;19.09;59.25
50732;BME280;36700;50.488;2.544;2023-08-08T08:17:00;101252.06;;;19.05;59.11
50732;BME280;36700;50.488;2.544;2023-08-08T08:19:26;101241.28;;;18.98;59.22
50732;BME280;36700;50.488;2.544;2023-08-08T08:21:52;101255.41;;;18.95;59.41
50732;BME280;36700;50.488;2.544;2023-08-08T08:24:18;101246.28;;;18.90;59.42
50732;BME280;36700;50.488;2.544;2023-08-08T08:26:44;101240.75;;;18.84;59.57
50732;BME280;36700;50.488;2.544;2023-08-08T08:29:10;101250.00;;;18.83;59.77
50732;BME280;36700;50.488;2.544;2023-08-08T08:31:36;101249.44;;;18.81;60.39
50732;BME280;36700;50.488;2.544;2023-08-08T08:34:03;101250.72;;;18.79;59.86
50732;BME280;36700;50.488;2.544;2023-08-08T08:36:29;101250.97;;;18.77;60.13
50732;BME280;36700;50.488;2.544;2023-08-08T08:38:55;101240.31;;;18.76;60.03
50732;BME280;36700;50.488;2.544;2023-08-08T08:41:25;101252.88;;;18.77;60.14
50732;BME280;36700;50.488;2.544;2023-08-08T08:43:52;101247.44;;;18.77;60.02
50732;BME280;36700;50.488;2.544;2023-08-08T08:46:21;101257.09;;;18.84;59.88
50732;BME280;36700;50.488;2.544;2023-08-08T08:48:49;101249.25;;;18.88;59.70
50732;BME280;36700;50.488;2.544;2023-08-08T08:51:20;101252.59;;;18.90;59.67
50732;BME280;36700;50.488;2.544;2023-08-08T08:53:46;101261.34;;;18.92;59.96
50732;BME280;36700;50.488;2.544;2023-08-08T08:56:14;101254.81;;;18.93;59.74
50732;BME280;36700;50.488;2.544;2023-08-08T08:58:40;101266.78;;;18.92;59.70
50732;BME280;36700;50.488;2.544;2023-08-08T09:01:09;101259.91;;;18.90;59.44
50732;BME280;36700;50.488;2.544;2023-08-08T09:03:36;101261.47;;;18.86;59.71
50732;BME280;36700;50.488;2.544;2023-08-08T09:06:03;101261.47;;;18.86;59.35
50732;BME280;36700;50.488;2.544;2023-08-08T09:08:30;101268.00;;;18.84;59.63
50732;BME280;36700;50.488;2.544;2023-08-08T09:10:56;101264.19;;;18.86;59.67
50732;BME280;36700;50.488;2.544;2023-08-08T09:13:23;101260.31;;;18.81;59.68
50732;BME280;36700;50.488;2.544;2023-08-08T09:15:52;101261.72;;;18.84;59.97
50732;BME280;36700;50.488;2.544;2023-08-08T09:18:18;101259.00;;;18.84;59.92
50732;BME280;36700;50.488;2.544;2023-08-08T09:20:50;101266.09;;;18.85;59.94
50732;BME280;36700;50.488;2.544;2023-08-08T09:23:16;101275.94;;;18.86;59.67
50732;BME280;36700;50.488;2.544;2023-08-08T09:25:42;101280.31;;;18.87;59.72
50732;BME280;36700;50.488;2.544;2023-08-08T09:28:08;101285.53;;;18.89;59.46
50732;BME280;36700;50.488;2.544;2023-08-08T09:30:34;101284.22;;;18.91;59.54
50732;BME280;36700;50.488;2.544;2023-08-08T09:33:01;101278.75;;;18.91;59.25
50732;BME280;36700;50.488;2.544;2023-08-08T09:35:29;101280.41;;;18.92;59.28
50732;BME280;36700;50.488;2.544;2023-08-08T09:37:55;101280.41;;;18.92;59.25
50732;BME280;36700;50.488;2.544;2023-08-08T09:40:22;101282.06;;;18.93;59.67
50732;BME280;36700;50.488;2.544;2023-08-08T09:42:50;101282.31;;;18.92;59.48
50732;BME280;36700;50.488;2.544;2023-08-08T09:45:17;101279.84;;;18.90;59.65
50732;BME280;36700;50.488;2.544;2023-08-08T09:47:42;101277.34;;;18.89;59.44
50732;BME280;36700;50.488;2.544;2023-08-08T09:50:09;101273.78;;;18.88;59.56
50732;BME280;36700;50.488;2.544;2023-08-08T09:52:35;101281.94;;;18.88;59.30
50732;BME280;36700;50.488;2.544;2023-08-08T09:55:04;101271.91;;;18.89;59.25
50732;BME280;36700;50.488;2.544;2023-08-08T09:57:32;101268.34;;;18.88;59.13
50732;BME280;36700;50.488;2.544;2023-08-08T09:59:58;101262.88;;;18.88;59.33
50732;BME280;36700;50.488;2.544;2023-08-08T10:02:24;101266.44;;;18.89;59.08
50732;BME280;36700;50.488;2.544;2023-08-08T10:04:50;101266.69;;;18.87;58.84
50732;BME280;36700;50.488;2.544;2023-08-08T10:07:18;101263.97;;;18.87;58.97
50732;BME280;36700;50.488;2.544;2023-08-08T10:09:44;101277.81;;;18.86;58.91
50732;BME280;36700;50.488;2.544;2023-08-08T10:12:11;101270.25;;;18.88;59.24
50732;BME280;36700;50.488;2.544;2023-08-08T10:14:37;101259.91;;;18.90;58.82
50732;BME280;36700;50.488;2.544;2023-08-08T10:17:04;101259.91;;;18.90;58.99
50732;BME280;36700;50.488;2.544;2023-08-08T10:19:30;101249.03;;;18.90;58.68
50732;BME280;36700;50.488;2.544;2023-08-08T10:22:00;101254.22;;;18.91;58.83
50732;BME280;36700;50.488;2.544;2023-08-08T10:24:36;101256.44;;;18.94;58.79
50732;BME280;36700;50.488;2.544;2023-08-08T10:27:03;101255.88;;;18.92;59.30
50732;BME280;36700;50.488;2.544;2023-08-08T10:29:32;101252.09;;;18.93;58.95
50732;BME280;36700;50.488;2.544;2023-08-08T10:32:03;101251.28;;;18.93;59.28
50732;BME280;36700;50.488;2.544;2023-08-08T10:34:43;101267.63;;;18.93;58.97
50732;BME280;36700;50.488;2.544;2023-08-08T10:37:16;101257.78;;;18.92;59.06
50732;BME280;36700;50.488;2.544;2023-08-08T10:42:20;101246.06;;;18.91;59.31
50732;BME280;36700;50.488;2.544;2023-08-08T10:44:52;101244.41;;;18.90;59.46
50732;BME280;36700;50.488;2.544;2023-08-08T10:47:23;101248.78;;;18.91;59.47
50732;BME280;36700;50.488;2.544;2023-08-08T10:50:05;101249.34;;;18.93;58.88
50732;BME280;36700;50.488;2.544;2023-08-08T10:55:25;101249.97;;;18.95;59.33
50732;BME280;36700;50.488;2.544;2023-08-08T10:58:13;101253.50;;;18.96;59.00
50732;BME280;36700;50.488;2.544;2023-08-08T11:00:41;101258.38;;;18.94;58.88
50732;BME280;36700;50.488;2.544;2023-08-08T11:03:07;101249.34;;;18.93;58.83
50732;BME280;36700;50.488;2.544;2023-08-08T11:05:36;101256.44;;;18.94;59.37
50732;BME280;36700;50.488;2.544;2023-08-08T11:08:04;101260.03;;;18.95;59.13
50732;BME280;36700;50.488;2.544;2023-08-08T11:10:35;101260.84;;;18.95;59.07
50732;BME280;36700;50.488;2.544;2023-08-08T11:13:04;101250.75;;;18.96;59.21
50732;BME280;36700;50.488;2.544;2023-08-08T11:15:32;101251.84;;;18.95;59.34
50732;BME280;36700;50.488;2.544;2023-08-08T11:17:59;101249.13;;;18.95;59.13
50732;BME280;36700;50.488;2.544;2023-08-08T11:20:30;101256.44;;;18.94;59.20
50732;BME280;36700;50.488;2.544;2023-08-08T11:22:57;101255.66;;;18.94;59.34
50732;BME280;36700;50.488;2.544;2023-08-08T11:25:28;101254.56;;;18.95;59.53
50732;BME280;36700;50.488;2.544;2023-08-08T11:27:55;101254.56;;;18.95;59.42
50732;BME280;36700;50.488;2.544;2023-08-08T11:30:22;101244.75;;;18.94;59.10
50732;BME280;36700;50.488;2.544;2023-08-08T11:32:49;101243.91;;;18.93;59.40
50732;BME280;36700;50.488;2.544;2023-08-08T11:35:17;101242.81;;;18.94;59.38
50732;BME280;36700;50.488;2.544;2023-08-08T11:37:45;101245.56;;;18.94;58.82
50732;BME280;36700;50.488;2.544;2023-08-08T11:40:12;101237.97;;;18.96;59.39
50732;BME280;36700;50.488;2.544;2023-08-08T11:42:39;101234.41;;;18.96;59.12
50732;BME280;36700;50.488;2.544;2023-08-08T11:45:11;101237.13;;;18.96;59.13
50732;BME280;36700;50.488;2.544;2023-08-08T11:47:39;101226.25;;;18.96;59.32
50732;BME280;36700;50.488;2.544;2023-08-08T11:50:06;101242.34;;;18.97;58.81
50732;BME280;36700;50.488;2.544;2023-08-08T11:52:35;101243.19;;;18.98;59.18
50732;BME280;36700;50.488;2.544;2023-08-08T11:55:01;101236.91;;;18.97;59.33
50732;BME280;36700;50.488;2.544;2023-08-08T11:57:27;101233.59;;;18.95;59.02
50732;BME280;36700;50.488;2.544;2023-08-08T11:59:54;101227.31;;;18.95;59.40
50732;BME280;36700;50.488;2.544;2023-08-08T12:02:20;101233.34;;;18.97;59.07
50732;BME280;36700;50.488;2.544;2023-08-08T12:04:46;101230.63;;;18.97;59.57
50732;BME280;36700;50.488;2.544;2023-08-08T12:07:12;101223.03;;;18.99;58.94
50732;BME280;36700;50.488;2.544;2023-08-08T12:09:39;101216.75;;;18.98;59.33
50732;BME280;36700;50.488;2.544;2023-08-08T12:12:05;101210.22;;;19.00;59.08
50732;BME280;36700;50.488;2.544;2023-08-08T12:14:38;101214.03;;;18.98;59.00
50732;BME280;36700;50.488;2.544;2023-08-08T12:17:05;101215.94;;;18.98;59.10
50732;BME280;36700;50.488;2.544;2023-08-08T12:19:31;101222.44;;;18.97;59.00
50732;BME280;36700;50.488;2.544;2023-08-08T12:21:56;101231.22;;;18.99;59.29
50732;BME280;36700;50.488;2.544;2023-08-08T12:24:23;101235.81;;;18.98;58.98
50732;BME280;36700;50.488;2.544;2023-08-08T12:26:48;101237.97;;;18.96;59.61
50732;BME280;36700;50.488;2.544;2023-08-08T12:29:14;101243.09;;;18.93;59.70
50732;BME280;36700;50.488;2.544;2023-08-08T12:31:40;101237.38;;;18.94;59.60
50732;BME280;36700;50.488;2.544;2023-08-08T12:34:06;101237.38;;;18.94;59.38
50732;BME280;36700;50.488;2.544;2023-08-08T12:36:33;101233.59;;;18.95;59.22
50732;BME280;36700;50.488;2.544;2023-08-08T12:38:59;101228.38;;;18.94;59.15
50732;BME280;36700;50.488;2.544;2023-08-08T12:41:25;101230.03;;;18.95;59.39
50732;BME280;36700;50.488;2.544;2023-08-08T12:43:52;101227.06;;;18.96;59.44
50732;BME280;36700;50.488;2.544;2023-08-08T12:46:18;101221.38;;;18.98;59.08
50732;BME280;36700;50.488;2.544;2023-08-08T12:48:44;101218.66;;;18.98;59.45
50732;BME280;36700;50.488;2.544;2023-08-08T12:51:10;101218.66;;;18.98;59.00
50732;BME280;36700;50.488;2.544;2023-08-08T12:53:36;101220.56;;;18.97;58.91